Pagrindinis puslapis
METAR-TAF:

METAR-TAF

Oro uostai :

Osornas, Čilė

platuma: 40-36-41S, ilguma: 73-03-38W, Aukštis: 57 m

Dabartinis oras

Ataskaita buvo paskelbta 28 minutes, ne 03:00 UTC
Vėjas 6 kt iš Šiaurės, svyruoja nuo Šiaurės Vakarų ir Šiaurės Rytų
Temperatūra 11°C
Drėgmė 87%
Slėgis 1010 hPa
Matomumas 10 km arba daugiau

METAR: SCJO 190300Z AUTO 36006KT 310V040 9999 FEW036/// SCT047/// BKN057/// 11/09 Q1010

Laikas: 23:28 (03:28 UTC)

Prognozė

Ataskaita buvo paskelbta 16 valandos ir 18 minutes, ne 11:10 UTC
Prognozė galioja nuo 17 metu 12 UTC su 17 metu 24 UTC
Vėjas 2 kt nuo kintamojo kryptimis
Matomumas 10 km arba daugiau
Apsiniaukę ne aukštis 3500 ft
Tapsmas
nuo 17 metu 15 UTC su 17 metu 17 UTC
Su prošvaistėmis ne aukštis 2000 ft
Tapsmas
nuo 17 metu 19 UTC su 17 metu 21 UTC
Vėjas 5 kt iš Šiaurės/Šiaurės Rytų
Mažai debesys ne aukštis 3500 ft

TAF: SCJO 171110Z 1712/1724 VRB02KT 9999 OVC035 TN10/1713Z TX16/1719Z BECMG 1715/1717 BKN020 BECMG 1719/1721 02005KT FEW035

Orai ataskaitas ir orų prognozės (METAR, TAF).

turimą stotys yra geltonos ir raudonos taškus žemėlapyje.

Perkelti pele per norėdami pamatyti stoties vardą.

Tada spustelėkite, norėdami matyti oro stebėjimo ir prognozės.

Norėdami pakeisti žemėlapį: spustelėkite ant žalios mygtukų su juodo kryžiaus žemyn,; žalią mygtuką su brūkšneliu, jei norite nutolinti; arba žalių rodyklių gretimoms žemėlapius.


METAR-TAF: